sensor_id;sensor_type;location;lat;lon;timestamp;P1;durP1;ratioP1;P2;durP2;ratioP2
13311;SDS011;34033;48.672;9.376;2023-03-08T00:02:13;4.10;;;2.90;;
13311;SDS011;34033;48.672;9.376;2023-03-08T00:04:38;4.13;;;2.90;;
13311;SDS011;34033;48.672;9.376;2023-03-08T00:07:03;4.33;;;2.80;;
13311;SDS011;34033;48.672;9.376;2023-03-08T00:09:28;3.27;;;2.90;;
13311;SDS011;34033;48.672;9.376;2023-03-08T00:11:54;3.93;;;2.80;;
13311;SDS011;34033;48.672;9.376;2023-03-08T00:14:19;4.00;;;3.00;;
13311;SDS011;34033;48.672;9.376;2023-03-08T00:16:46;3.40;;;2.97;;
13311;SDS011;34033;48.672;9.376;2023-03-08T00:19:12;5.03;;;3.50;;
13311;SDS011;34033;48.672;9.376;2023-03-08T00:21:37;4.47;;;3.07;;
13311;SDS011;34033;48.672;9.376;2023-03-08T00:24:03;3.20;;;2.87;;
13311;SDS011;34033;48.672;9.376;2023-03-08T00:26:28;3.37;;;2.87;;
13311;SDS011;34033;48.672;9.376;2023-03-08T00:28:53;3.03;;;2.73;;
13311;SDS011;34033;48.672;9.376;2023-03-08T00:31:19;4.63;;;3.13;;
13311;SDS011;34033;48.672;9.376;2023-03-08T00:33:44;2.60;;;2.40;;
13311;SDS011;34033;48.672;9.376;2023-03-08T00:36:14;4.63;;;2.93;;
13311;SDS011;34033;48.672;9.376;2023-03-08T00:38:40;3.00;;;2.63;;
13311;SDS011;34033;48.672;9.376;2023-03-08T00:41:06;4.00;;;2.80;;
13311;SDS011;34033;48.672;9.376;2023-03-08T00:43:32;4.20;;;2.60;;
13311;SDS011;34033;48.672;9.376;2023-03-08T00:45:57;2.77;;;2.50;;
13311;SDS011;34033;48.672;9.376;2023-03-08T00:48:23;3.47;;;2.60;;
13311;SDS011;34033;48.672;9.376;2023-03-08T00:50:48;3.50;;;2.97;;
13311;SDS011;34033;48.672;9.376;2023-03-08T00:53:13;3.20;;;2.80;;
13311;SDS011;34033;48.672;9.376;2023-03-08T00:55:45;5.27;;;2.90;;
13311;SDS011;34033;48.672;9.376;2023-03-08T00:58:13;4.23;;;2.80;;
13311;SDS011;34033;48.672;9.376;2023-03-08T01:00:38;6.20;;;2.87;;
13311;SDS011;34033;48.672;9.376;2023-03-08T01:03:03;4.80;;;3.20;;
13311;SDS011;34033;48.672;9.376;2023-03-08T01:05:29;3.93;;;2.47;;
13311;SDS011;34033;48.672;9.376;2023-03-08T01:07:54;3.50;;;3.03;;
13311;SDS011;34033;48.672;9.376;2023-03-08T01:10:19;3.13;;;2.83;;
13311;SDS011;34033;48.672;9.376;2023-03-08T01:12:45;4.33;;;2.93;;
13311;SDS011;34033;48.672;9.376;2023-03-08T01:15:10;4.40;;;3.10;;
13311;SDS011;34033;48.672;9.376;2023-03-08T01:17:36;3.67;;;2.60;;
13311;SDS011;34033;48.672;9.376;2023-03-08T01:20:01;2.77;;;2.30;;
13311;SDS011;34033;48.672;9.376;2023-03-08T01:22:28;3.70;;;3.00;;
13311;SDS011;34033;48.672;9.376;2023-03-08T01:24:54;3.80;;;2.77;;
13311;SDS011;34033;48.672;9.376;2023-03-08T01:27:19;5.47;;;3.03;;
13311;SDS011;34033;48.672;9.376;2023-03-08T01:29:44;4.30;;;2.87;;
13311;SDS011;34033;48.672;9.376;2023-03-08T01:32:10;3.97;;;2.90;;
13311;SDS011;34033;48.672;9.376;2023-03-08T01:34:36;9.00;;;3.33;;
13311;SDS011;34033;48.672;9.376;2023-03-08T01:37:02;4.50;;;2.70;;
13311;SDS011;34033;48.672;9.376;2023-03-08T01:39:27;3.87;;;2.90;;
13311;SDS011;34033;48.672;9.376;2023-03-08T01:41:53;5.03;;;3.23;;
13311;SDS011;34033;48.672;9.376;2023-03-08T01:44:19;3.67;;;3.07;;
13311;SDS011;34033;48.672;9.376;2023-03-08T01:46:46;3.33;;;3.03;;
13311;SDS011;34033;48.672;9.376;2023-03-08T01:49:26;3.13;;;2.80;;
13311;SDS011;34033;48.672;9.376;2023-03-08T01:51:56;4.27;;;3.40;;
13311;SDS011;34033;48.672;9.376;2023-03-08T01:54:30;3.40;;;3.10;;
13311;SDS011;34033;48.672;9.376;2023-03-08T01:57:00;4.03;;;3.13;;
13311;SDS011;34033;48.672;9.376;2023-03-08T01:59:29;5.47;;;3.40;;
13311;SDS011;34033;48.672;9.376;2023-03-08T02:01:58;3.70;;;2.57;;
13311;SDS011;34033;48.672;9.376;2023-03-08T02:04:24;5.70;;;3.40;;
13311;SDS011;34033;48.672;9.376;2023-03-08T02:06:51;4.80;;;2.90;;
13311;SDS011;34033;48.672;9.376;2023-03-08T02:09:16;3.50;;;2.77;;
13311;SDS011;34033;48.672;9.376;2023-03-08T02:11:42;5.10;;;3.17;;
13311;SDS011;34033;48.672;9.376;2023-03-08T02:14:08;3.13;;;2.80;;
13311;SDS011;34033;48.672;9.376;2023-03-08T02:16:34;3.13;;;2.70;;
13311;SDS011;34033;48.672;9.376;2023-03-08T02:21:27;3.17;;;2.80;;
13311;SDS011;34033;48.672;9.376;2023-03-08T02:23:53;2.80;;;2.47;;
13311;SDS011;34033;48.672;9.376;2023-03-08T02:26:19;4.67;;;3.00;;
13311;SDS011;34033;48.672;9.376;2023-03-08T02:28:45;4.37;;;2.80;;
13311;SDS011;34033;48.672;9.376;2023-03-08T02:31:11;6.00;;;3.07;;
13311;SDS011;34033;48.672;9.376;2023-03-08T02:33:37;5.73;;;3.30;;
13311;SDS011;34033;48.672;9.376;2023-03-08T02:36:03;4.23;;;3.10;;
13311;SDS011;34033;48.672;9.376;2023-03-08T02:38:31;4.43;;;3.07;;
13311;SDS011;34033;48.672;9.376;2023-03-08T02:40:56;4.37;;;3.00;;
13311;SDS011;34033;48.672;9.376;2023-03-08T02:43:22;4.07;;;2.83;;
13311;SDS011;34033;48.672;9.376;2023-03-08T02:45:47;5.30;;;3.07;;
13311;SDS011;34033;48.672;9.376;2023-03-08T02:48:13;3.97;;;2.83;;
13311;SDS011;34033;48.672;9.376;2023-03-08T02:50:39;3.03;;;2.60;;
13311;SDS011;34033;48.672;9.376;2023-03-08T02:53:05;4.07;;;3.17;;
13311;SDS011;34033;48.672;9.376;2023-03-08T02:55:30;3.80;;;2.97;;
13311;SDS011;34033;48.672;9.376;2023-03-08T02:57:59;5.30;;;3.20;;
13311;SDS011;34033;48.672;9.376;2023-03-08T03:00:24;7.47;;;3.30;;
13311;SDS011;34033;48.672;9.376;2023-03-08T03:02:49;3.00;;;2.60;;
13311;SDS011;34033;48.672;9.376;2023-03-08T03:05:14;7.40;;;3.40;;
13311;SDS011;34033;48.672;9.376;2023-03-08T03:07:40;5.30;;;3.00;;
13311;SDS011;34033;48.672;9.376;2023-03-08T03:10:07;4.47;;;3.03;;
13311;SDS011;34033;48.672;9.376;2023-03-08T03:12:34;3.90;;;2.87;;
13311;SDS011;34033;48.672;9.376;2023-03-08T03:15:00;4.07;;;2.93;;
13311;SDS011;34033;48.672;9.376;2023-03-08T03:17:26;3.10;;;2.77;;
13311;SDS011;34033;48.672;9.376;2023-03-08T03:19:52;4.40;;;3.00;;
13311;SDS011;34033;48.672;9.376;2023-03-08T03:22:17;4.47;;;3.20;;
13311;SDS011;34033;48.672;9.376;2023-03-08T03:24:42;4.57;;;3.23;;
13311;SDS011;34033;48.672;9.376;2023-03-08T03:27:08;5.60;;;3.27;;
13311;SDS011;34033;48.672;9.376;2023-03-08T03:29:33;4.83;;;3.30;;
13311;SDS011;34033;48.672;9.376;2023-03-08T03:31:58;5.30;;;3.20;;
13311;SDS011;34033;48.672;9.376;2023-03-08T03:34:23;4.20;;;3.10;;
13311;SDS011;34033;48.672;9.376;2023-03-08T03:36:49;4.77;;;3.00;;
13311;SDS011;34033;48.672;9.376;2023-03-08T03:39:14;4.10;;;3.13;;
13311;SDS011;34033;48.672;9.376;2023-03-08T03:41:40;4.00;;;3.20;;
13311;SDS011;34033;48.672;9.376;2023-03-08T03:44:05;5.73;;;3.57;;
13311;SDS011;34033;48.672;9.376;2023-03-08T03:46:30;3.93;;;3.10;;
13311;SDS011;34033;48.672;9.376;2023-03-08T03:48:55;5.83;;;3.53;;
13311;SDS011;34033;48.672;9.376;2023-03-08T03:51:21;4.67;;;3.40;;
13311;SDS011;34033;48.672;9.376;2023-03-08T03:53:47;4.10;;;3.30;;
13311;SDS011;34033;48.672;9.376;2023-03-08T03:56:14;3.97;;;3.30;;
13311;SDS011;34033;48.672;9.376;2023-03-08T03:58:41;4.23;;;3.37;;
13311;SDS011;34033;48.672;9.376;2023-03-08T04:01:08;7.00;;;3.67;;
13311;SDS011;34033;48.672;9.376;2023-03-08T04:03:35;4.10;;;3.33;;
13311;SDS011;34033;48.672;9.376;2023-03-08T04:06:04;4.10;;;3.37;;
13311;SDS011;34033;48.672;9.376;2023-03-08T04:08:31;7.17;;;3.33;;
13311;SDS011;34033;48.672;9.376;2023-03-08T04:10:58;4.17;;;3.30;;
13311;SDS011;34033;48.672;9.376;2023-03-08T04:13:24;3.53;;;3.17;;
13311;SDS011;34033;48.672;9.376;2023-03-08T04:15:49;4.43;;;3.30;;
13311;SDS011;34033;48.672;9.376;2023-03-08T04:18:15;4.40;;;3.40;;
13311;SDS011;34033;48.672;9.376;2023-03-08T04:20:40;5.77;;;3.43;;
13311;SDS011;34033;48.672;9.376;2023-03-08T04:23:05;4.00;;;3.33;;
13311;SDS011;34033;48.672;9.376;2023-03-08T04:25:31;4.60;;;3.60;;
13311;SDS011;34033;48.672;9.376;2023-03-08T04:27:56;4.73;;;3.33;;
13311;SDS011;34033;48.672;9.376;2023-03-08T04:30:21;4.67;;;3.80;;
13311;SDS011;34033;48.672;9.376;2023-03-08T04:32:47;4.67;;;3.33;;
13311;SDS011;34033;48.672;9.376;2023-03-08T04:35:12;5.30;;;3.50;;
13311;SDS011;34033;48.672;9.376;2023-03-08T04:37:37;4.73;;;3.37;;
13311;SDS011;34033;48.672;9.376;2023-03-08T04:40:04;3.90;;;3.17;;
13311;SDS011;34033;48.672;9.376;2023-03-08T04:42:33;3.70;;;3.20;;
13311;SDS011;34033;48.672;9.376;2023-03-08T04:44:58;3.30;;;3.00;;
13311;SDS011;34033;48.672;9.376;2023-03-08T04:47:24;5.23;;;3.50;;
13311;SDS011;34033;48.672;9.376;2023-03-08T04:49:49;4.60;;;3.53;;
13311;SDS011;34033;48.672;9.376;2023-03-08T04:52:14;4.20;;;3.57;;
13311;SDS011;34033;48.672;9.376;2023-03-08T04:54:40;4.43;;;3.73;;
13311;SDS011;34033;48.672;9.376;2023-03-08T04:57:05;6.50;;;4.23;;
13311;SDS011;34033;48.672;9.376;2023-03-08T04:59:30;4.47;;;3.70;;
13311;SDS011;34033;48.672;9.376;2023-03-08T05:01:56;5.23;;;3.63;;
13311;SDS011;34033;48.672;9.376;2023-03-08T05:04:21;6.07;;;3.10;;
13311;SDS011;34033;48.672;9.376;2023-03-08T05:06:46;5.57;;;3.80;;
13311;SDS011;34033;48.672;9.376;2023-03-08T05:09:12;4.57;;;3.33;;
13311;SDS011;34033;48.672;9.376;2023-03-08T05:11:37;5.37;;;3.17;;
13311;SDS011;34033;48.672;9.376;2023-03-08T05:14:02;5.00;;;3.23;;
13311;SDS011;34033;48.672;9.376;2023-03-08T05:16:28;4.67;;;3.40;;
13311;SDS011;34033;48.672;9.376;2023-03-08T05:18:53;4.83;;;3.10;;
13311;SDS011;34033;48.672;9.376;2023-03-08T05:21:20;4.40;;;3.33;;
13311;SDS011;34033;48.672;9.376;2023-03-08T05:23:46;3.93;;;3.20;;
13311;SDS011;34033;48.672;9.376;2023-03-08T05:26:12;5.63;;;3.20;;
13311;SDS011;34033;48.672;9.376;2023-03-08T05:28:40;3.70;;;3.30;;
13311;SDS011;34033;48.672;9.376;2023-03-08T05:31:16;5.97;;;3.07;;
13311;SDS011;34033;48.672;9.376;2023-03-08T05:33:43;5.60;;;3.20;;
13311;SDS011;34033;48.672;9.376;2023-03-08T05:36:10;4.47;;;3.40;;
13311;SDS011;34033;48.672;9.376;2023-03-08T05:38:36;5.67;;;3.67;;
13311;SDS011;34033;48.672;9.376;2023-03-08T05:41:03;5.57;;;3.63;;
13311;SDS011;34033;48.672;9.376;2023-03-08T05:43:30;4.33;;;3.00;;
13311;SDS011;34033;48.672;9.376;2023-03-08T05:48:22;4.47;;;3.47;;
13311;SDS011;34033;48.672;9.376;2023-03-08T05:50:48;4.60;;;3.33;;
13311;SDS011;34033;48.672;9.376;2023-03-08T05:53:13;5.00;;;3.80;;
13311;SDS011;34033;48.672;9.376;2023-03-08T05:55:38;4.77;;;3.50;;
13311;SDS011;34033;48.672;9.376;2023-03-08T05:58:04;4.43;;;3.40;;
13311;SDS011;34033;48.672;9.376;2023-03-08T06:00:29;11.93;;;4.20;;
13311;SDS011;34033;48.672;9.376;2023-03-08T06:02:55;5.83;;;3.90;;
13311;SDS011;34033;48.672;9.376;2023-03-08T06:05:23;4.93;;;4.13;;
13311;SDS011;34033;48.672;9.376;2023-03-08T06:07:49;5.87;;;3.90;;
13311;SDS011;34033;48.672;9.376;2023-03-08T06:10:15;6.20;;;3.77;;
13311;SDS011;34033;48.672;9.376;2023-03-08T06:12:41;6.60;;;4.40;;
13311;SDS011;34033;48.672;9.376;2023-03-08T06:15:06;7.93;;;4.17;;
13311;SDS011;34033;48.672;9.376;2023-03-08T06:17:32;6.07;;;3.87;;
13311;SDS011;34033;48.672;9.376;2023-03-08T06:19:57;5.00;;;3.73;;
13311;SDS011;34033;48.672;9.376;2023-03-08T06:22:22;5.60;;;4.20;;
13311;SDS011;34033;48.672;9.376;2023-03-08T06:24:48;5.93;;;4.40;;
13311;SDS011;34033;48.672;9.376;2023-03-08T06:27:14;5.93;;;3.23;;
13311;SDS011;34033;48.672;9.376;2023-03-08T06:29:40;4.63;;;3.40;;
13311;SDS011;34033;48.672;9.376;2023-03-08T06:32:06;4.37;;;3.83;;
13311;SDS011;34033;48.672;9.376;2023-03-08T06:34:31;6.60;;;3.53;;
13311;SDS011;34033;48.672;9.376;2023-03-08T06:36:57;4.83;;;3.57;;
13311;SDS011;34033;48.672;9.376;2023-03-08T06:39:23;4.70;;;3.70;;
13311;SDS011;34033;48.672;9.376;2023-03-08T06:41:49;5.77;;;3.73;;
13311;SDS011;34033;48.672;9.376;2023-03-08T06:44:14;6.30;;;4.43;;
13311;SDS011;34033;48.672;9.376;2023-03-08T06:46:40;5.97;;;4.10;;
13311;SDS011;34033;48.672;9.376;2023-03-08T06:49:05;8.60;;;4.57;;
13311;SDS011;34033;48.672;9.376;2023-03-08T06:51:31;5.37;;;4.30;;
13311;SDS011;34033;48.672;9.376;2023-03-08T06:53:57;4.97;;;3.93;;
13311;SDS011;34033;48.672;9.376;2023-03-08T06:56:22;5.00;;;4.00;;
13311;SDS011;34033;48.672;9.376;2023-03-08T06:58:48;6.80;;;4.40;;
13311;SDS011;34033;48.672;9.376;2023-03-08T07:01:13;7.37;;;4.80;;
13311;SDS011;34033;48.672;9.376;2023-03-08T07:03:39;6.33;;;4.50;;
13311;SDS011;34033;48.672;9.376;2023-03-08T07:06:06;7.97;;;4.57;;
13311;SDS011;34033;48.672;9.376;2023-03-08T07:08:33;5.47;;;4.23;;
13311;SDS011;34033;48.672;9.376;2023-03-08T07:11:00;4.07;;;3.43;;
13311;SDS011;34033;48.672;9.376;2023-03-08T07:13:26;9.27;;;4.70;;
13311;SDS011;34033;48.672;9.376;2023-03-08T07:15:52;7.53;;;4.30;;
13311;SDS011;34033;48.672;9.376;2023-03-08T07:18:18;4.97;;;3.73;;
13311;SDS011;34033;48.672;9.376;2023-03-08T07:20:44;8.80;;;4.27;;
13311;SDS011;34033;48.672;9.376;2023-03-08T07:23:09;10.33;;;3.90;;
13311;SDS011;34033;48.672;9.376;2023-03-08T07:25:36;6.80;;;4.70;;
13311;SDS011;34033;48.672;9.376;2023-03-08T07:28:04;7.50;;;4.93;;
13311;SDS011;34033;48.672;9.376;2023-03-08T07:30:29;6.53;;;4.83;;
13311;SDS011;34033;48.672;9.376;2023-03-08T07:32:55;11.03;;;5.00;;
13311;SDS011;34033;48.672;9.376;2023-03-08T07:35:20;6.40;;;4.23;;
13311;SDS011;34033;48.672;9.376;2023-03-08T07:37:45;6.63;;;4.47;;
13311;SDS011;34033;48.672;9.376;2023-03-08T07:40:13;7.00;;;4.80;;
13311;SDS011;34033;48.672;9.376;2023-03-08T07:42:40;7.27;;;5.10;;
13311;SDS011;34033;48.672;9.376;2023-03-08T07:45:06;6.50;;;4.10;;
13311;SDS011;34033;48.672;9.376;2023-03-08T07:47:31;6.40;;;4.63;;
13311;SDS011;34033;48.672;9.376;2023-03-08T07:49:57;9.87;;;5.03;;
13311;SDS011;34033;48.672;9.376;2023-03-08T07:52:26;8.73;;;4.77;;
13311;SDS011;34033;48.672;9.376;2023-03-08T07:54:53;6.37;;;4.50;;
13311;SDS011;34033;48.672;9.376;2023-03-08T07:57:18;7.10;;;4.00;;
13311;SDS011;34033;48.672;9.376;2023-03-08T07:59:43;8.30;;;5.20;;
13311;SDS011;34033;48.672;9.376;2023-03-08T08:02:12;7.17;;;4.67;;
13311;SDS011;34033;48.672;9.376;2023-03-08T08:04:38;8.30;;;4.63;;
13311;SDS011;34033;48.672;9.376;2023-03-08T08:07:04;8.43;;;4.83;;
13311;SDS011;34033;48.672;9.376;2023-03-08T08:09:31;7.43;;;4.77;;
13311;SDS011;34033;48.672;9.376;2023-03-08T08:11:56;6.70;;;4.63;;
13311;SDS011;34033;48.672;9.376;2023-03-08T08:14:21;7.83;;;5.03;;
13311;SDS011;34033;48.672;9.376;2023-03-08T08:16:47;6.33;;;4.27;;
13311;SDS011;34033;48.672;9.376;2023-03-08T08:19:12;7.97;;;5.00;;
13311;SDS011;34033;48.672;9.376;2023-03-08T08:21:38;10.43;;;4.30;;
13311;SDS011;34033;48.672;9.376;2023-03-08T08:24:04;6.90;;;5.03;;
13311;SDS011;34033;48.672;9.376;2023-03-08T08:26:30;12.33;;;5.83;;
13311;SDS011;34033;48.672;9.376;2023-03-08T08:28:55;5.50;;;4.30;;
13311;SDS011;34033;48.672;9.376;2023-03-08T08:31:22;9.37;;;6.20;;
13311;SDS011;34033;48.672;9.376;2023-03-08T08:33:48;10.77;;;5.43;;
13311;SDS011;34033;48.672;9.376;2023-03-08T08:36:17;8.53;;;6.20;;
13311;SDS011;34033;48.672;9.376;2023-03-08T08:38:43;11.70;;;5.20;;
13311;SDS011;34033;48.672;9.376;2023-03-08T08:41:13;8.70;;;5.57;;
13311;SDS011;34033;48.672;9.376;2023-03-08T08:43:39;8.60;;;5.57;;
13311;SDS011;34033;48.672;9.376;2023-03-08T08:46:05;8.70;;;5.53;;
13311;SDS011;34033;48.672;9.376;2023-03-08T08:48:30;6.97;;;4.73;;
13311;SDS011;34033;48.672;9.376;2023-03-08T08:50:57;10.60;;;4.90;;
13311;SDS011;34033;48.672;9.376;2023-03-08T08:53:24;6.93;;;4.57;;
13311;SDS011;34033;48.672;9.376;2023-03-08T08:55:49;8.10;;;5.43;;
13311;SDS011;34033;48.672;9.376;2023-03-08T08:58:15;10.47;;;6.57;;
13311;SDS011;34033;48.672;9.376;2023-03-08T09:00:40;9.50;;;6.10;;
13311;SDS011;34033;48.672;9.376;2023-03-08T09:03:06;11.07;;;6.23;;
13311;SDS011;34033;48.672;9.376;2023-03-08T09:05:32;9.70;;;6.23;;
13311;SDS011;34033;48.672;9.376;2023-03-08T09:07:59;9.70;;;5.70;;
13311;SDS011;34033;48.672;9.376;2023-03-08T09:10:26;12.30;;;6.00;;
13311;SDS011;34033;48.672;9.376;2023-03-08T09:12:53;8.37;;;5.47;;
13311;SDS011;34033;48.672;9.376;2023-03-08T09:15:19;10.70;;;6.07;;
13311;SDS011;34033;48.672;9.376;2023-03-08T09:17:46;7.50;;;5.87;;
13311;SDS011;34033;48.672;9.376;2023-03-08T09:20:13;8.00;;;6.00;;
13311;SDS011;34033;48.672;9.376;2023-03-08T09:22:39;7.87;;;5.47;;
13311;SDS011;34033;48.672;9.376;2023-03-08T09:25:05;8.10;;;5.70;;
13311;SDS011;34033;48.672;9.376;2023-03-08T09:27:31;8.37;;;5.80;;
13311;SDS011;34033;48.672;9.376;2023-03-08T09:29:57;7.33;;;5.47;;
13311;SDS011;34033;48.672;9.376;2023-03-08T09:32:22;7.40;;;5.67;;
13311;SDS011;34033;48.672;9.376;2023-03-08T09:34:48;9.97;;;6.50;;
13311;SDS011;34033;48.672;9.376;2023-03-08T09:37:14;6.20;;;5.60;;
13311;SDS011;34033;48.672;9.376;2023-03-08T09:39:39;10.60;;;6.30;;
13311;SDS011;34033;48.672;9.376;2023-03-08T09:42:06;8.93;;;5.77;;
13311;SDS011;34033;48.672;9.376;2023-03-08T09:44:54;10.40;;;5.87;;
13311;SDS011;34033;48.672;9.376;2023-03-08T09:47:26;8.93;;;5.90;;
13311;SDS011;34033;48.672;9.376;2023-03-08T09:49:53;8.43;;;5.70;;
13311;SDS011;34033;48.672;9.376;2023-03-08T09:52:31;8.13;;;5.23;;
13311;SDS011;34033;48.672;9.376;2023-03-08T09:55:03;9.00;;;5.57;;
13311;SDS011;34033;48.672;9.376;2023-03-08T09:57:34;9.77;;;6.30;;
13311;SDS011;34033;48.672;9.376;2023-03-08T10:00:03;10.40;;;6.20;;
13311;SDS011;34033;48.672;9.376;2023-03-08T10:02:46;11.70;;;5.80;;
13311;SDS011;34033;48.672;9.376;2023-03-08T10:08:51;9.17;;;6.37;;
13311;SDS011;34033;48.672;9.376;2023-03-08T10:11:28;8.57;;;5.70;;
13311;SDS011;34033;48.672;9.376;2023-03-08T10:13:59;9.00;;;5.50;;
13311;SDS011;34033;48.672;9.376;2023-03-08T10:16:31;9.33;;;6.00;;
13311;SDS011;34033;48.672;9.376;2023-03-08T10:21:59;10.37;;;5.27;;
13311;SDS011;34033;48.672;9.376;2023-03-08T10:24:38;8.70;;;5.23;;
13311;SDS011;34033;48.672;9.376;2023-03-08T10:29:47;6.17;;;4.63;;
13311;SDS011;34033;48.672;9.376;2023-03-08T10:32:13;6.33;;;4.90;;
13311;SDS011;34033;48.672;9.376;2023-03-08T10:34:39;9.03;;;5.43;;
13311;SDS011;34033;48.672;9.376;2023-03-08T10:37:04;7.23;;;4.90;;
13311;SDS011;34033;48.672;9.376;2023-03-08T10:39:31;6.70;;;4.70;;
13311;SDS011;34033;48.672;9.376;2023-03-08T10:41:57;6.17;;;4.70;;
13311;SDS011;34033;48.672;9.376;2023-03-08T10:44:29;7.97;;;4.97;;
13311;SDS011;34033;48.672;9.376;2023-03-08T10:47:01;9.33;;;4.53;;
13311;SDS011;34033;48.672;9.376;2023-03-08T10:49:41;4.03;;;3.10;;
13311;SDS011;34033;48.672;9.376;2023-03-08T10:52:13;2.50;;;2.30;;
13311;SDS011;34033;48.672;9.376;2023-03-08T10:57:30;2.30;;;2.07;;
13311;SDS011;34033;48.672;9.376;2023-03-08T10:59:57;2.30;;;2.10;;
13311;SDS011;34033;48.672;9.376;2023-03-08T11:02:29;2.33;;;1.80;;
13311;SDS011;34033;48.672;9.376;2023-03-08T11:04:55;1.80;;;1.70;;
13311;SDS011;34033;48.672;9.376;2023-03-08T11:07:23;2.03;;;1.67;;
13311;SDS011;34033;48.672;9.376;2023-03-08T11:09:51;1.80;;;1.70;;
13311;SDS011;34033;48.672;9.376;2023-03-08T11:12:27;2.87;;;2.07;;
13311;SDS011;34033;48.672;9.376;2023-03-08T11:14:52;3.20;;;1.50;;
13311;SDS011;34033;48.672;9.376;2023-03-08T11:17:20;1.83;;;1.70;;
13311;SDS011;34033;48.672;9.376;2023-03-08T11:19:54;1.70;;;1.60;;
13311;SDS011;34033;48.672;9.376;2023-03-08T11:25:14;1.50;;;1.40;;
13311;SDS011;34033;48.672;9.376;2023-03-08T11:35:44;1.33;;;1.17;;
13311;SDS011;34033;48.672;9.376;2023-03-08T11:46:11;0.80;;;0.80;;
13311;SDS011;34033;48.672;9.376;2023-03-08T11:57:05;0.40;;;0.40;;
13311;SDS011;34033;48.672;9.376;2023-03-08T11:59:45;0.70;;;0.70;;
13311;SDS011;34033;48.672;9.376;2023-03-08T12:02:21;0.63;;;0.40;;
13311;SDS011;34033;48.672;9.376;2023-03-08T12:05:04;0.40;;;0.20;;
13311;SDS011;34033;48.672;9.376;2023-03-08T12:07:46;0.50;;;0.40;;
13311;SDS011;34033;48.672;9.376;2023-03-08T12:18:47;0.43;;;0.43;;
13311;SDS011;34033;48.672;9.376;2023-03-08T12:21:22;4.93;;;0.50;;
13311;SDS011;34033;48.672;9.376;2023-03-08T12:32:00;3.47;;;0.37;;
13311;SDS011;34033;48.672;9.376;2023-03-08T12:34:28;0.30;;;0.30;;
13311;SDS011;34033;48.672;9.376;2023-03-08T12:36:54;2.00;;;0.30;;
13311;SDS011;34033;48.672;9.376;2023-03-08T12:39:29;0.33;;;0.33;;
13311;SDS011;34033;48.672;9.376;2023-03-08T12:41:58;1.43;;;0.40;;
13311;SDS011;34033;48.672;9.376;2023-03-08T12:44:36;0.30;;;0.30;;
13311;SDS011;34033;48.672;9.376;2023-03-08T12:49:41;0.53;;;0.30;;
13311;SDS011;34033;48.672;9.376;2023-03-08T12:57:34;0.30;;;0.30;;
13311;SDS011;34033;48.672;9.376;2023-03-08T13:00:22;0.87;;;0.30;;
13311;SDS011;34033;48.672;9.376;2023-03-08T13:03:03;2.77;;;0.27;;
13311;SDS011;34033;48.672;9.376;2023-03-08T13:05:48;0.47;;;0.20;;
13311;SDS011;34033;48.672;9.376;2023-03-08T13:13:16;0.10;;;0.10;;
13311;SDS011;34033;48.672;9.376;2023-03-08T13:15:49;0.40;;;0.40;;
13311;SDS011;34033;48.672;9.376;2023-03-08T13:18:16;0.13;;;0.13;;
13311;SDS011;34033;48.672;9.376;2023-03-08T13:23:37;0.30;;;0.30;;
13311;SDS011;34033;48.672;9.376;2023-03-08T13:26:30;0.40;;;0.40;;
13311;SDS011;34033;48.672;9.376;2023-03-08T13:29:09;0.60;;;0.60;;
13311;SDS011;34033;48.672;9.376;2023-03-08T13:31:38;0.70;;;0.70;;
13311;SDS011;34033;48.672;9.376;2023-03-08T13:34:04;0.30;;;0.30;;
13311;SDS011;34033;48.672;9.376;2023-03-08T13:36:47;0.40;;;0.40;;
13311;SDS011;34033;48.672;9.376;2023-03-08T13:39:23;0.50;;;0.50;;
13311;SDS011;34033;48.672;9.376;2023-03-08T13:41:50;0.30;;;0.30;;
13311;SDS011;34033;48.672;9.376;2023-03-08T13:44:17;0.30;;;0.30;;
13311;SDS011;34033;48.672;9.376;2023-03-08T13:46:46;0.43;;;0.43;;
13311;SDS011;34033;48.672;9.376;2023-03-08T13:49:24;1.10;;;0.30;;
13311;SDS011;34033;48.672;9.376;2023-03-08T13:51:59;0.30;;;0.30;;
13311;SDS011;34033;48.672;9.376;2023-03-08T13:54:30;0.40;;;0.37;;
13311;SDS011;34033;48.672;9.376;2023-03-08T13:56:59;0.33;;;0.33;;
13311;SDS011;34033;48.672;9.376;2023-03-08T13:59:26;0.60;;;0.30;;
13311;SDS011;34033;48.672;9.376;2023-03-08T14:01:53;0.30;;;0.30;;
13311;SDS011;34033;48.672;9.376;2023-03-08T14:04:20;2.13;;;0.40;;
13311;SDS011;34033;48.672;9.376;2023-03-08T14:06:54;0.30;;;0.30;;
13311;SDS011;34033;48.672;9.376;2023-03-08T14:09:22;0.20;;;0.20;;
13311;SDS011;34033;48.672;9.376;2023-03-08T14:11:58;0.20;;;0.20;;
13311;SDS011;34033;48.672;9.376;2023-03-08T14:16:55;0.20;;;0.20;;
13311;SDS011;34033;48.672;9.376;2023-03-08T14:24:34;6.67;;;0.33;;
13311;SDS011;34033;48.672;9.376;2023-03-08T14:27:02;3.70;;;0.60;;
13311;SDS011;34033;48.672;9.376;2023-03-08T14:29:59;0.83;;;0.20;;
13311;SDS011;34033;48.672;9.376;2023-03-08T14:35:53;0.30;;;0.30;;
13311;SDS011;34033;48.672;9.376;2023-03-08T14:38:28;0.50;;;0.30;;
13311;SDS011;34033;48.672;9.376;2023-03-08T14:40:55;0.30;;;0.30;;
13311;SDS011;34033;48.672;9.376;2023-03-08T14:43:23;0.10;;;0.10;;
13311;SDS011;34033;48.672;9.376;2023-03-08T14:51:03;0.30;;;0.30;;
13311;SDS011;34033;48.672;9.376;2023-03-08T14:53:57;0.63;;;0.63;;
13311;SDS011;34033;48.672;9.376;2023-03-08T14:56:24;0.33;;;0.33;;
13311;SDS011;34033;48.672;9.376;2023-03-08T14:58:50;0.50;;;0.50;;
13311;SDS011;34033;48.672;9.376;2023-03-08T15:03:50;0.30;;;0.30;;
13311;SDS011;34033;48.672;9.376;2023-03-08T15:06:19;0.90;;;0.57;;
13311;SDS011;34033;48.672;9.376;2023-03-08T15:08:46;0.30;;;0.30;;
13311;SDS011;34033;48.672;9.376;2023-03-08T15:11:12;1.90;;;0.47;;
13311;SDS011;34033;48.672;9.376;2023-03-08T15:13:38;0.57;;;0.50;;
13311;SDS011;34033;48.672;9.376;2023-03-08T15:16:05;0.30;;;0.30;;
13311;SDS011;34033;48.672;9.376;2023-03-08T15:18:31;0.50;;;0.40;;
13311;SDS011;34033;48.672;9.376;2023-03-08T15:20:56;0.20;;;0.20;;
13311;SDS011;34033;48.672;9.376;2023-03-08T15:23:23;4.20;;;2.60;;
13311;SDS011;34033;48.672;9.376;2023-03-08T15:25:52;0.30;;;0.30;;
13311;SDS011;34033;48.672;9.376;2023-03-08T15:28:18;0.30;;;0.30;;
13311;SDS011;34033;48.672;9.376;2023-03-08T15:30:45;6.77;;;0.40;;
13311;SDS011;34033;48.672;9.376;2023-03-08T15:33:10;0.70;;;0.30;;
13311;SDS011;34033;48.672;9.376;2023-03-08T15:35:36;0.50;;;0.50;;
13311;SDS011;34033;48.672;9.376;2023-03-08T15:38:02;0.40;;;0.40;;
13311;SDS011;34033;48.672;9.376;2023-03-08T15:40:28;0.53;;;0.50;;
13311;SDS011;34033;48.672;9.376;2023-03-08T15:42:55;3.40;;;0.50;;
13311;SDS011;34033;48.672;9.376;2023-03-08T15:45:20;0.30;;;0.30;;
13311;SDS011;34033;48.672;9.376;2023-03-08T15:48:05;0.50;;;0.50;;
13311;SDS011;34033;48.672;9.376;2023-03-08T15:50:32;1.43;;;0.73;;
13311;SDS011;34033;48.672;9.376;2023-03-08T15:52:59;0.30;;;0.30;;
13311;SDS011;34033;48.672;9.376;2023-03-08T15:55:25;1.90;;;1.10;;
13311;SDS011;34033;48.672;9.376;2023-03-08T15:57:51;1.57;;;1.10;;
13311;SDS011;34033;48.672;9.376;2023-03-08T16:00:18;0.90;;;0.90;;
13311;SDS011;34033;48.672;9.376;2023-03-08T16:02:45;0.93;;;0.80;;
13311;SDS011;34033;48.672;9.376;2023-03-08T16:05:11;1.53;;;0.67;;
13311;SDS011;34033;48.672;9.376;2023-03-08T16:07:37;0.63;;;0.63;;
13311;SDS011;34033;48.672;9.376;2023-03-08T16:10:04;0.60;;;0.60;;
13311;SDS011;34033;48.672;9.376;2023-03-08T16:12:31;0.60;;;0.60;;
13311;SDS011;34033;48.672;9.376;2023-03-08T16:14:56;1.67;;;0.50;;
13311;SDS011;34033;48.672;9.376;2023-03-08T16:17:22;1.33;;;0.57;;
13311;SDS011;34033;48.672;9.376;2023-03-08T16:19:51;0.30;;;0.30;;
13311;SDS011;34033;48.672;9.376;2023-03-08T16:22:17;0.50;;;0.50;;
13311;SDS011;34033;48.672;9.376;2023-03-08T16:24:43;1.00;;;0.70;;
13311;SDS011;34033;48.672;9.376;2023-03-08T16:27:08;0.53;;;0.53;;